sensor_id;sensor_type;location;lat;lon;timestamp;pressure;altitude;pressure_sealevel;temperature;humidity
44675;BME280;30388;52.038;-1.478;2022-11-04T00:01:41;65776.47;;;10.02;100.00
44675;BME280;30388;52.038;-1.478;2022-11-04T00:04:11;65765.54;;;9.88;100.00
44675;BME280;30388;52.038;-1.478;2022-11-04T00:06:38;65759.81;;;9.81;100.00
44675;BME280;30388;52.038;-1.478;2022-11-04T00:09:07;65752.44;;;9.95;100.00
44675;BME280;30388;52.038;-1.478;2022-11-04T00:11:35;65814.73;;;10.50;100.00
44675;BME280;30388;52.038;-1.478;2022-11-04T00:14:03;65823.06;;;10.61;100.00
44675;BME280;30388;52.038;-1.478;2022-11-04T00:16:31;65769.89;;;9.94;100.00
44675;BME280;30388;52.038;-1.478;2022-11-04T00:18:59;65805.19;;;10.39;100.00
44675;BME280;30388;52.038;-1.478;2022-11-04T00:21:27;65746.67;;;9.66;100.00
44675;BME280;30388;52.038;-1.478;2022-11-04T00:23:54;65701.27;;;9.56;100.00
44675;BME280;30388;52.038;-1.478;2022-11-04T00:26:21;65676.88;;;8.98;100.00
44675;BME280;30388;52.038;-1.478;2022-11-04T00:28:48;65623.30;;;8.80;100.00
44675;BME280;30388;52.038;-1.478;2022-11-04T00:31:15;65648.90;;;8.90;100.00
44675;BME280;30388;52.038;-1.478;2022-11-04T00:33:43;65638.52;;;8.99;100.00
44675;BME280;30388;52.038;-1.478;2022-11-04T00:36:10;65660.02;;;9.05;100.00
44675;BME280;30388;52.038;-1.478;2022-11-04T00:38:37;65619.54;;;8.76;100.00
44675;BME280;30388;52.038;-1.478;2022-11-04T00:41:04;65600.52;;;8.74;100.00
44675;BME280;30388;52.038;-1.478;2022-11-04T00:43:31;65492.00;;;7.85;100.00
44675;BME280;30388;52.038;-1.478;2022-11-04T00:46:00;65440.39;;;7.42;100.00
44675;BME280;30388;52.038;-1.478;2022-11-04T00:48:27;65463.52;;;7.48;100.00
44675;BME280;30388;52.038;-1.478;2022-11-04T00:50:55;65429.81;;;7.29;100.00
44675;BME280;30388;52.038;-1.478;2022-11-04T00:53:22;65446.65;;;7.27;100.00
44675;BME280;30388;52.038;-1.478;2022-11-04T00:55:49;65416.41;;;7.11;100.00
44675;BME280;30388;52.038;-1.478;2022-11-04T00:58:16;65389.63;;;6.77;100.00
44675;BME280;30388;52.038;-1.478;2022-11-04T01:00:42;65370.52;;;6.53;100.00
44675;BME280;30388;52.038;-1.478;2022-11-04T01:03:09;65377.36;;;6.62;100.00
44675;BME280;30388;52.038;-1.478;2022-11-04T01:05:37;65451.99;;;7.34;100.00
44675;BME280;30388;52.038;-1.478;2022-11-04T01:08:04;65531.14;;;7.85;100.00
44675;BME280;30388;52.038;-1.478;2022-11-04T01:10:34;65512.74;;;7.89;100.00
44675;BME280;30388;52.038;-1.478;2022-11-04T01:13:01;65521.99;;;7.74;100.00
44675;BME280;30388;52.038;-1.478;2022-11-04T01:15:28;65499.67;;;7.45;100.00
44675;BME280;30388;52.038;-1.478;2022-11-04T01:17:55;65477.00;;;7.66;100.00
44675;BME280;30388;52.038;-1.478;2022-11-04T01:20:22;65455.42;;;7.39;100.00
44675;BME280;30388;52.038;-1.478;2022-11-04T01:22:50;65494.50;;;7.38;100.00
44675;BME280;30388;52.038;-1.478;2022-11-04T01:25:17;65511.74;;;8.10;100.00
44675;BME280;30388;52.038;-1.478;2022-11-04T01:27:44;65444.49;;;7.24;100.00
44675;BME280;30388;52.038;-1.478;2022-11-04T01:30:17;65410.32;;;7.04;100.00
44675;BME280;30388;52.038;-1.478;2022-11-04T01:32:45;65437.59;;;7.16;100.00
44675;BME280;30388;52.038;-1.478;2022-11-04T01:35:12;65431.61;;;7.30;100.00
44675;BME280;30388;52.038;-1.478;2022-11-04T01:37:40;65435.29;;;7.34;100.00
44675;BME280;30388;52.038;-1.478;2022-11-04T01:40:12;65443.86;;;7.46;100.00
44675;BME280;30388;52.038;-1.478;2022-11-04T01:42:39;65445.88;;;7.26;100.00
44675;BME280;30388;52.038;-1.478;2022-11-04T01:45:12;65416.75;;;7.12;100.00
44675;BME280;30388;52.038;-1.478;2022-11-04T01:47:47;65454.60;;;7.36;100.00
44675;BME280;30388;52.038;-1.478;2022-11-04T01:50:19;65498.30;;;7.71;100.00
44675;BME280;30388;52.038;-1.478;2022-11-04T01:52:53;65450.10;;;7.09;100.00
44675;BME280;30388;52.038;-1.478;2022-11-04T01:55:23;65485.11;;;7.76;100.00
44675;BME280;30388;52.038;-1.478;2022-11-04T01:57:55;65488.33;;;7.58;100.00
44675;BME280;30388;52.038;-1.478;2022-11-04T02:00:23;65467.03;;;7.53;100.00
44675;BME280;30388;52.038;-1.478;2022-11-04T02:02:57;65448.61;;;7.30;100.00
44675;BME280;30388;52.038;-1.478;2022-11-04T02:05:26;65356.31;;;6.62;100.00
44675;BME280;30388;52.038;-1.478;2022-11-04T02:07:56;65379.91;;;6.66;100.00
44675;BME280;30388;52.038;-1.478;2022-11-04T02:10:26;65345.54;;;6.22;100.00
44675;BME280;30388;52.038;-1.478;2022-11-04T02:12:54;65300.53;;;6.40;100.00
44675;BME280;30388;52.038;-1.478;2022-11-04T02:15:29;65271.92;;;6.04;100.00
44675;BME280;30388;52.038;-1.478;2022-11-04T02:18:09;65305.93;;;5.97;100.00
44675;BME280;30388;52.038;-1.478;2022-11-04T02:20:59;65330.82;;;6.29;100.00
44675;BME280;30388;52.038;-1.478;2022-11-04T02:24:51;65341.97;;;6.93;100.00
44675;BME280;30388;52.038;-1.478;2022-11-04T02:27:30;65303.38;;;5.95;100.00
44675;BME280;30388;52.038;-1.478;2022-11-04T02:30:02;65287.96;;;5.75;100.00
44675;BME280;30388;52.038;-1.478;2022-11-04T02:32:38;65308.28;;;6.50;100.00
44675;BME280;30388;52.038;-1.478;2022-11-04T02:35:11;65320.50;;;6.17;100.00
44675;BME280;30388;52.038;-1.478;2022-11-04T02:37:50;65272.80;;;5.56;100.00
44675;BME280;30388;52.038;-1.478;2022-11-04T02:40:26;65301.60;;;5.92;100.00
44675;BME280;30388;52.038;-1.478;2022-11-04T02:42:59;65296.90;;;5.86;100.00
44675;BME280;30388;52.038;-1.478;2022-11-04T02:45:34;65289.04;;;5.77;100.00
44675;BME280;30388;52.038;-1.478;2022-11-04T02:48:08;65330.90;;;6.02;100.00
44675;BME280;30388;52.038;-1.478;2022-11-04T02:50:41;65324.38;;;6.21;100.00
44675;BME280;30388;52.038;-1.478;2022-11-04T02:53:14;65327.63;;;6.25;100.00
44675;BME280;30388;52.038;-1.478;2022-11-04T02:55:46;65288.02;;;5.76;100.00
44675;BME280;30388;52.038;-1.478;2022-11-04T02:58:19;65344.30;;;6.20;100.00
44675;BME280;30388;52.038;-1.478;2022-11-04T03:00:48;65292.90;;;6.31;100.00
44675;BME280;30388;52.038;-1.478;2022-11-04T03:03:20;65298.34;;;6.37;100.00
44675;BME280;30388;52.038;-1.478;2022-11-04T03:05:49;65325.65;;;6.23;100.00
44675;BME280;30388;52.038;-1.478;2022-11-04T03:08:21;65338.90;;;6.41;100.00
44675;BME280;30388;52.038;-1.478;2022-11-04T03:10:54;65275.62;;;6.08;100.00
44675;BME280;30388;52.038;-1.478;2022-11-04T03:13:30;65222.79;;;5.41;100.00
44675;BME280;30388;52.038;-1.478;2022-11-04T03:16:02;65226.65;;;5.46;100.00
44675;BME280;30388;52.038;-1.478;2022-11-04T03:18:35;65187.78;;;4.97;100.00
44675;BME280;30388;52.038;-1.478;2022-11-04T03:21:08;65218.45;;;5.36;100.00
44675;BME280;30388;52.038;-1.478;2022-11-04T03:23:37;65209.02;;;5.24;100.00
44675;BME280;30388;52.038;-1.478;2022-11-04T03:26:09;65230.20;;;5.50;100.00
44675;BME280;30388;52.038;-1.478;2022-11-04T03:28:44;65250.29;;;5.50;100.00
44675;BME280;30388;52.038;-1.478;2022-11-04T03:31:19;65266.65;;;5.97;100.00
44675;BME280;30388;52.038;-1.478;2022-11-04T03:33:50;65275.05;;;5.81;100.00
44675;BME280;30388;52.038;-1.478;2022-11-04T03:36:17;65280.93;;;6.15;100.00
44675;BME280;30388;52.038;-1.478;2022-11-04T03:38:46;65279.78;;;5.64;100.00
44675;BME280;30388;52.038;-1.478;2022-11-04T03:41:17;65298.64;;;5.88;100.00
44675;BME280;30388;52.038;-1.478;2022-11-04T03:43:48;65341.49;;;6.16;100.00
44675;BME280;30388;52.038;-1.478;2022-11-04T03:46:15;65424.96;;;7.00;100.00
44675;BME280;30388;52.038;-1.478;2022-11-04T03:48:43;65477.33;;;7.44;100.00
44675;BME280;30388;52.038;-1.478;2022-11-04T03:51:10;65500.77;;;7.47;100.00
44675;BME280;30388;52.038;-1.478;2022-11-04T03:53:38;65489.70;;;7.33;100.00
44675;BME280;30388;52.038;-1.478;2022-11-04T03:56:24;65457.11;;;7.19;100.00
44675;BME280;30388;52.038;-1.478;2022-11-04T03:59:02;65347.75;;;6.23;100.00
44675;BME280;30388;52.038;-1.478;2022-11-04T04:01:41;65376.86;;;6.38;100.00
44675;BME280;30388;52.038;-1.478;2022-11-04T04:04:15;65295.75;;;5.85;100.00
44675;BME280;30388;52.038;-1.478;2022-11-04T04:06:50;65366.19;;;6.74;100.00
44675;BME280;30388;52.038;-1.478;2022-11-04T04:09:20;65357.72;;;6.36;100.00
44675;BME280;30388;52.038;-1.478;2022-11-04T04:11:53;65318.80;;;5.87;100.00
44675;BME280;30388;52.038;-1.478;2022-11-04T04:14:29;65217.31;;;4.85;100.00
44675;BME280;30388;52.038;-1.478;2022-11-04T04:16:59;65267.15;;;5.48;100.00
44675;BME280;30388;52.038;-1.478;2022-11-04T04:19:29;65320.50;;;6.16;100.00
44675;BME280;30388;52.038;-1.478;2022-11-04T04:22:00;65314.72;;;6.09;100.00
44675;BME280;30388;52.038;-1.478;2022-11-04T04:24:35;65266.13;;;5.47;100.00
44675;BME280;30388;52.038;-1.478;2022-11-04T04:27:04;65306.39;;;5.98;100.00
44675;BME280;30388;52.038;-1.478;2022-11-04T04:29:32;65232.77;;;5.53;100.00
44675;BME280;30388;52.038;-1.478;2022-11-04T04:32:02;65313.57;;;6.07;100.00
44675;BME280;30388;52.038;-1.478;2022-11-04T04:34:31;65241.73;;;5.65;100.00
44675;BME280;30388;52.038;-1.478;2022-11-04T04:37:02;65309.79;;;6.03;100.00
44675;BME280;30388;52.038;-1.478;2022-11-04T04:39:35;65259.83;;;5.88;100.00
44675;BME280;30388;52.038;-1.478;2022-11-04T04:42:06;65161.68;;;4.62;100.00
44675;BME280;30388;52.038;-1.478;2022-11-04T04:44:34;65067.78;;;3.66;100.00
44675;BME280;30388;52.038;-1.478;2022-11-04T04:47:03;65066.82;;;3.88;100.00
44675;BME280;30388;52.038;-1.478;2022-11-04T04:49:36;64983.30;;;2.80;100.00
44675;BME280;30388;52.038;-1.478;2022-11-04T04:52:15;64965.56;;;3.07;100.00
44675;BME280;30388;52.038;-1.478;2022-11-04T04:54:42;64964.63;;;3.06;100.00
44675;BME280;30388;52.038;-1.478;2022-11-04T04:57:09;64974.08;;;3.18;100.00
44675;BME280;30388;52.038;-1.478;2022-11-04T04:59:36;64978.00;;;3.23;100.00
44675;BME280;30388;52.038;-1.478;2022-11-04T05:02:04;65036.13;;;3.48;100.00
44675;BME280;30388;52.038;-1.478;2022-11-04T05:04:31;65140.19;;;4.37;100.00
44675;BME280;30388;52.038;-1.478;2022-11-04T05:06:58;65243.35;;;5.41;100.00
44675;BME280;30388;52.038;-1.478;2022-11-04T05:09:25;65288.64;;;5.76;100.00
44675;BME280;30388;52.038;-1.478;2022-11-04T05:11:53;65183.49;;;4.91;100.00
44675;BME280;30388;52.038;-1.478;2022-11-04T05:14:20;65133.20;;;4.50;100.00
44675;BME280;30388;52.038;-1.478;2022-11-04T05:16:47;65190.18;;;5.00;100.00
44675;BME280;30388;52.038;-1.478;2022-11-04T05:19:14;65148.68;;;4.48;100.00
44675;BME280;30388;52.038;-1.478;2022-11-04T05:21:42;65076.15;;;3.99;100.00
44675;BME280;30388;52.038;-1.478;2022-11-04T05:24:09;65090.06;;;3.95;100.00
44675;BME280;30388;52.038;-1.478;2022-11-04T05:26:36;65053.76;;;3.48;100.00
44675;BME280;30388;52.038;-1.478;2022-11-04T05:29:04;65094.85;;;4.23;100.00
44675;BME280;30388;52.038;-1.478;2022-11-04T05:31:31;65002.28;;;2.83;100.00
44675;BME280;30388;52.038;-1.478;2022-11-04T05:33:58;65004.39;;;3.09;100.00
44675;BME280;30388;52.038;-1.478;2022-11-04T05:36:25;64952.31;;;2.91;100.00
44675;BME280;30388;52.038;-1.478;2022-11-04T05:38:53;64939.02;;;2.73;100.00
44675;BME280;30388;52.038;-1.478;2022-11-04T05:41:21;64928.29;;;2.60;100.00
44675;BME280;30388;52.038;-1.478;2022-11-04T05:43:50;64954.61;;;2.45;100.00
44675;BME280;30388;52.038;-1.478;2022-11-04T05:46:17;64875.01;;;1.92;100.00
44675;BME280;30388;52.038;-1.478;2022-11-04T05:48:45;64847.27;;;2.06;100.00
44675;BME280;30388;52.038;-1.478;2022-11-04T05:51:13;64858.22;;;1.71;100.00
44675;BME280;30388;52.038;-1.478;2022-11-04T05:53:40;64849.16;;;2.08;100.00
44675;BME280;30388;52.038;-1.478;2022-11-04T05:56:07;64787.10;;;1.51;100.00
44675;BME280;30388;52.038;-1.478;2022-11-04T05:58:35;64758.06;;;1.41;100.00
44675;BME280;30388;52.038;-1.478;2022-11-04T06:01:40;64804.28;;;1.50;100.00
44675;BME280;30388;52.038;-1.478;2022-11-04T06:04:12;64832.72;;;1.60;100.00
44675;BME280;30388;52.038;-1.478;2022-11-04T06:06:39;64805.96;;;1.75;100.00
44675;BME280;30388;52.038;-1.478;2022-11-04T06:09:07;64799.17;;;1.45;100.00
44675;BME280;30388;52.038;-1.478;2022-11-04T06:11:35;64839.92;;;1.96;100.00
44675;BME280;30388;52.038;-1.478;2022-11-04T06:14:03;64797.51;;;1.64;100.00
44675;BME280;30388;52.038;-1.478;2022-11-04T06:16:30;64799.69;;;1.45;100.00
44675;BME280;30388;52.038;-1.478;2022-11-04T06:18:58;64905.97;;;2.32;100.00
44675;BME280;30388;52.038;-1.478;2022-11-04T06:21:26;64889.90;;;2.11;100.00
44675;BME280;30388;52.038;-1.478;2022-11-04T06:23:54;64927.07;;;2.58;100.00
44675;BME280;30388;52.038;-1.478;2022-11-04T06:26:23;65012.62;;;3.19;100.00
44675;BME280;30388;52.038;-1.478;2022-11-04T06:28:51;64962.75;;;2.55;100.00
44675;BME280;30388;52.038;-1.478;2022-11-04T06:31:18;65007.06;;;3.11;100.00
44675;BME280;30388;52.038;-1.478;2022-11-04T06:33:46;64990.77;;;3.40;100.00
44675;BME280;30388;52.038;-1.478;2022-11-04T06:36:15;65077.53;;;3.79;100.00
44675;BME280;30388;52.038;-1.478;2022-11-04T06:38:43;64998.81;;;3.02;100.00
44675;BME280;30388;52.038;-1.478;2022-11-04T06:41:12;64947.50;;;2.36;100.00
44675;BME280;30388;52.038;-1.478;2022-11-04T06:43:39;64973.38;;;2.69;100.00
44675;BME280;30388;52.038;-1.478;2022-11-04T06:46:23;64962.97;;;2.56;100.00
44675;BME280;30388;52.038;-1.478;2022-11-04T06:48:51;64912.62;;;2.41;100.00
44675;BME280;30388;52.038;-1.478;2022-11-04T06:51:19;64974.99;;;2.71;100.00
44675;BME280;30388;52.038;-1.478;2022-11-04T06:53:46;64914.89;;;2.43;100.00
44675;BME280;30388;52.038;-1.478;2022-11-04T06:56:13;64952.32;;;2.69;100.00
44675;BME280;30388;52.038;-1.478;2022-11-04T06:58:41;64945.15;;;2.33;100.00
44675;BME280;30388;52.038;-1.478;2022-11-04T07:01:08;64951.15;;;2.40;100.00
44675;BME280;30388;52.038;-1.478;2022-11-04T07:03:35;65004.41;;;2.86;100.00
44675;BME280;30388;52.038;-1.478;2022-11-04T07:06:06;64905.29;;;2.31;100.00
44675;BME280;30388;52.038;-1.478;2022-11-04T07:08:34;64997.09;;;2.99;100.00
44675;BME280;30388;52.038;-1.478;2022-11-04T07:11:02;65012.23;;;3.18;100.00
44675;BME280;30388;52.038;-1.478;2022-11-04T07:13:29;65066.57;;;3.65;100.00
44675;BME280;30388;52.038;-1.478;2022-11-04T07:15:56;65085.21;;;3.67;100.00
44675;BME280;30388;52.038;-1.478;2022-11-04T07:18:24;64969.66;;;2.42;100.00
44675;BME280;30388;52.038;-1.478;2022-11-04T07:20:51;64940.48;;;2.27;100.00
44675;BME280;30388;52.038;-1.478;2022-11-04T07:23:18;64914.87;;;2.43;100.00
44675;BME280;30388;52.038;-1.478;2022-11-04T07:25:46;64926.48;;;2.58;100.00
44675;BME280;30388;52.038;-1.478;2022-11-04T07:28:13;65034.75;;;3.47;100.00
44675;BME280;30388;52.038;-1.478;2022-11-04T07:30:40;65052.15;;;3.25;100.00
44675;BME280;30388;52.038;-1.478;2022-11-04T07:33:08;65110.77;;;4.00;100.00
44675;BME280;30388;52.038;-1.478;2022-11-04T07:35:35;65173.92;;;4.80;100.00
44675;BME280;30388;52.038;-1.478;2022-11-04T07:38:02;65190.91;;;4.52;100.00
44675;BME280;30388;52.038;-1.478;2022-11-04T07:40:29;65092.32;;;3.49;100.00
44675;BME280;30388;52.038;-1.478;2022-11-04T07:42:57;65133.33;;;4.01;100.00
44675;BME280;30388;52.038;-1.478;2022-11-04T07:45:24;65104.73;;;3.91;100.00
44675;BME280;30388;52.038;-1.478;2022-11-04T07:47:51;65200.40;;;4.64;100.00
44675;BME280;30388;52.038;-1.478;2022-11-04T07:50:18;65171.42;;;4.28;100.00
44675;BME280;30388;52.038;-1.478;2022-11-04T07:52:46;65081.88;;;3.63;100.00
44675;BME280;30388;52.038;-1.478;2022-11-04T07:55:13;65138.24;;;4.07;100.00
44675;BME280;30388;52.038;-1.478;2022-11-04T07:57:41;65030.24;;;2.97;100.00
44675;BME280;30388;52.038;-1.478;2022-11-04T08:00:11;64959.64;;;2.52;100.00
44675;BME280;30388;52.038;-1.478;2022-11-04T08:02:38;64990.49;;;2.91;100.00
44675;BME280;30388;52.038;-1.478;2022-11-04T08:05:06;64977.91;;;2.74;100.00
44675;BME280;30388;52.038;-1.478;2022-11-04T08:07:34;64930.86;;;2.41;100.00
44675;BME280;30388;52.038;-1.478;2022-11-04T08:10:01;64998.06;;;3.01;100.00
44675;BME280;30388;52.038;-1.478;2022-11-04T08:12:28;65067.59;;;3.67;100.00
44675;BME280;30388;52.038;-1.478;2022-11-04T08:14:55;65082.40;;;3.86;100.00
44675;BME280;30388;52.038;-1.478;2022-11-04T08:17:23;64964.67;;;2.58;100.00
44675;BME280;30388;52.038;-1.478;2022-11-04T08:19:50;65060.17;;;3.79;100.00
44675;BME280;30388;52.038;-1.478;2022-11-04T08:22:17;65107.78;;;3.95;100.00
44675;BME280;30388;52.038;-1.478;2022-11-04T08:24:45;65079.26;;;3.59;100.00
44675;BME280;30388;52.038;-1.478;2022-11-04T08:27:12;65067.80;;;3.45;100.00
44675;BME280;30388;52.038;-1.478;2022-11-04T08:29:39;65049.07;;;3.66;100.00
44675;BME280;30388;52.038;-1.478;2022-11-04T08:32:07;64976.78;;;2.74;100.00
44675;BME280;30388;52.038;-1.478;2022-11-04T08:34:34;64902.66;;;2.28;100.00
44675;BME280;30388;52.038;-1.478;2022-11-04T08:37:01;64993.67;;;2.96;100.00
44675;BME280;30388;52.038;-1.478;2022-11-04T08:39:28;64978.27;;;2.75;100.00
44675;BME280;30388;52.038;-1.478;2022-11-04T08:41:56;65080.46;;;3.61;100.00
44675;BME280;30388;52.038;-1.478;2022-11-04T08:44:23;65015.27;;;3.23;100.00
44675;BME280;30388;52.038;-1.478;2022-11-04T08:46:50;65049.70;;;3.66;100.00
44675;BME280;30388;52.038;-1.478;2022-11-04T08:49:17;65026.51;;;3.36;100.00
44675;BME280;30388;52.038;-1.478;2022-11-04T08:51:45;64972.56;;;2.68;100.00
44675;BME280;30388;52.038;-1.478;2022-11-04T08:54:12;64970.71;;;2.92;100.00
44675;BME280;30388;52.038;-1.478;2022-11-04T08:56:40;65044.56;;;3.60;100.00
44675;BME280;30388;52.038;-1.478;2022-11-04T08:59:09;65095.95;;;4.03;100.00
44675;BME280;30388;52.038;-1.478;2022-11-04T09:01:36;65006.27;;;3.11;100.00
44675;BME280;30388;52.038;-1.478;2022-11-04T09:04:04;65035.84;;;3.49;100.00
44675;BME280;30388;52.038;-1.478;2022-11-04T09:06:34;65011.57;;;3.18;100.00
44675;BME280;30388;52.038;-1.478;2022-11-04T09:09:02;65024.96;;;3.35;100.00
44675;BME280;30388;52.038;-1.478;2022-11-04T09:11:30;65078.62;;;4.03;100.00
44675;BME280;30388;52.038;-1.478;2022-11-04T09:13:59;65083.15;;;4.09;100.00
44675;BME280;30388;52.038;-1.478;2022-11-04T09:16:27;65032.83;;;3.44;100.00
44675;BME280;30388;52.038;-1.478;2022-11-04T09:18:56;65085.64;;;3.90;100.00
44675;BME280;30388;52.038;-1.478;2022-11-04T09:21:24;65087.97;;;4.14;100.00
44675;BME280;30388;52.038;-1.478;2022-11-04T09:23:54;65024.54;;;3.83;100.00
44675;BME280;30388;52.038;-1.478;2022-11-04T09:26:22;65057.74;;;4.03;100.00
44675;BME280;30388;52.038;-1.478;2022-11-04T09:28:53;65133.23;;;4.29;100.00
44675;BME280;30388;52.038;-1.478;2022-11-04T09:31:21;65107.04;;;4.40;100.00
44675;BME280;30388;52.038;-1.478;2022-11-04T09:33:49;65207.94;;;5.23;100.00
44675;BME280;30388;52.038;-1.478;2022-11-04T09:36:17;65252.83;;;5.80;100.00
44675;BME280;30388;52.038;-1.478;2022-11-04T09:38:44;65203.55;;;5.18;100.00
44675;BME280;30388;52.038;-1.478;2022-11-04T09:41:29;65213.79;;;5.31;100.00
44675;BME280;30388;52.038;-1.478;2022-11-04T09:44:07;65190.37;;;5.01;100.00
44675;BME280;30388;52.038;-1.478;2022-11-04T09:46:39;65216.17;;;5.34;100.00
44675;BME280;30388;52.038;-1.478;2022-11-04T09:49:09;65370.84;;;6.55;100.00
44675;BME280;30388;52.038;-1.478;2022-11-04T09:51:40;65243.42;;;5.68;100.00
44675;BME280;30388;52.038;-1.478;2022-11-04T09:54:15;65187.24;;;5.19;100.00
44675;BME280;30388;52.038;-1.478;2022-11-04T09:56:47;65255.86;;;5.35;100.00
44675;BME280;30388;52.038;-1.478;2022-11-04T09:59:20;65304.67;;;5.97;100.00
44675;BME280;30388;52.038;-1.478;2022-11-04T10:01:59;65299.16;;;6.39;100.00
44675;BME280;30388;52.038;-1.478;2022-11-04T10:04:38;65236.69;;;5.60;100.00
44675;BME280;30388;52.038;-1.478;2022-11-04T10:07:18;65263.79;;;5.94;100.00
44675;BME280;30388;52.038;-1.478;2022-11-04T10:09:56;65210.42;;;5.26;100.00
44675;BME280;30388;52.038;-1.478;2022-11-04T10:12:42;65222.49;;;5.64;100.00
44675;BME280;30388;52.038;-1.478;2022-11-04T10:15:35;65200.16;;;5.35;100.00
44675;BME280;30388;52.038;-1.478;2022-11-04T10:18:17;65249.53;;;5.76;100.00
44675;BME280;30388;52.038;-1.478;2022-11-04T10:20:54;65261.48;;;6.13;100.00
44675;BME280;30388;52.038;-1.478;2022-11-04T10:23:28;65208.09;;;5.67;100.00
44675;BME280;30388;52.038;-1.478;2022-11-04T10:26:03;65331.88;;;6.81;100.00
44675;BME280;30388;52.038;-1.478;2022-11-04T10:28:51;65258.25;;;5.87;100.00
44675;BME280;30388;52.038;-1.478;2022-11-04T10:31:21;65242.01;;;5.90;100.00
44675;BME280;30388;52.038;-1.478;2022-11-04T10:33:52;65244.51;;;6.14;100.00
44675;BME280;30388;52.038;-1.478;2022-11-04T10:36:20;65292.03;;;6.30;100.00
44675;BME280;30388;52.038;-1.478;2022-11-04T10:38:51;65432.39;;;7.33;100.00
44675;BME280;30388;52.038;-1.478;2022-11-04T10:41:31;65375.99;;;6.61;100.00
44675;BME280;30388;52.038;-1.478;2022-11-04T10:44:03;65419.35;;;7.16;100.00
44675;BME280;30388;52.038;-1.478;2022-11-04T10:46:41;65368.41;;;7.00;100.00
44675;BME280;30388;52.038;-1.478;2022-11-04T10:49:30;65440.63;;;7.43;100.00
44675;BME280;30388;52.038;-1.478;2022-11-04T10:52:02;65497.58;;;8.15;100.00
44675;BME280;30388;52.038;-1.478;2022-11-04T10:54:36;65475.25;;;7.88;100.00
44675;BME280;30388;52.038;-1.478;2022-11-04T10:57:05;65543.62;;;8.29;100.00
44675;BME280;30388;52.038;-1.478;2022-11-04T10:59:44;65533.79;;;8.17;100.00
44675;BME280;30388;52.038;-1.478;2022-11-04T11:02:13;65407.86;;;7.01;100.00
44675;BME280;30388;52.038;-1.478;2022-11-04T11:04:39;65416.33;;;7.39;100.00
44675;BME280;30388;52.038;-1.478;2022-11-04T11:07:08;65548.22;;;8.35;100.00
44675;BME280;30388;52.038;-1.478;2022-11-04T11:09:47;65611.46;;;8.87;100.00
44675;BME280;30388;52.038;-1.478;2022-11-04T11:12:18;65705.80;;;9.86;100.00
44675;BME280;30388;52.038;-1.478;2022-11-04T11:14:46;65719.41;;;9.81;100.00
44675;BME280;30388;52.038;-1.478;2022-11-04T11:17:36;65608.95;;;9.12;100.00
44675;BME280;30388;52.038;-1.478;2022-11-04T11:20:18;65509.59;;;8.30;100.00
44675;BME280;30388;52.038;-1.478;2022-11-04T11:22:47;65583.62;;;9.01;100.00
44675;BME280;30388;52.038;-1.478;2022-11-04T11:25:21;65565.69;;;8.79;100.00
44675;BME280;30388;52.038;-1.478;2022-11-04T11:27:51;65522.54;;;8.25;100.00
44675;BME280;30388;52.038;-1.478;2022-11-04T11:30:22;65556.19;;;8.44;100.00
44675;BME280;30388;52.038;-1.478;2022-11-04T11:32:52;65745.14;;;10.36;100.00
44675;BME280;30388;52.038;-1.478;2022-11-04T11:35:22;65726.39;;;9.89;100.00
44675;BME280;30388;52.038;-1.478;2022-11-04T11:37:51;65648.28;;;9.35;100.00
44675;BME280;30388;52.038;-1.478;2022-11-04T11:40:24;65667.68;;;9.59;100.00
44675;BME280;30388;52.038;-1.478;2022-11-04T11:42:52;65706.91;;;9.87;100.00
44675;BME280;30388;52.038;-1.478;2022-11-04T11:45:22;65603.84;;;9.05;100.00
44675;BME280;30388;52.038;-1.478;2022-11-04T11:47:51;65715.43;;;10.21;100.00
44675;BME280;30388;52.038;-1.478;2022-11-04T11:50:20;65781.12;;;10.32;100.00
44675;BME280;30388;52.038;-1.478;2022-11-04T11:52:49;65786.80;;;10.39;100.00
44675;BME280;30388;52.038;-1.478;2022-11-04T11:55:19;65760.94;;;10.33;100.00
44675;BME280;30388;52.038;-1.478;2022-11-04T11:57:55;65696.63;;;9.73;100.00
44675;BME280;30388;52.038;-1.478;2022-11-04T12:00:25;65647.64;;;9.34;100.00
44675;BME280;30388;52.038;-1.478;2022-11-04T12:02:58;65508.32;;;8.29;100.00
44675;BME280;30388;52.038;-1.478;2022-11-04T12:05:34;65700.45;;;10.00;100.00
44675;BME280;30388;52.038;-1.478;2022-11-04T12:08:18;65691.12;;;9.89;100.00
44675;BME280;30388;52.038;-1.478;2022-11-04T12:10:55;65674.05;;;9.67;100.00
44675;BME280;30388;52.038;-1.478;2022-11-04T12:13:26;65721.83;;;9.83;100.00
44675;BME280;30388;52.038;-1.478;2022-11-04T12:16:08;65656.49;;;9.45;100.00
44675;BME280;30388;52.038;-1.478;2022-11-04T12:18:50;65724.88;;;9.86;100.00
44675;BME280;30388;52.038;-1.478;2022-11-04T12:21:23;65747.04;;;10.15;100.00
44675;BME280;30388;52.038;-1.478;2022-11-04T12:23:54;65650.75;;;9.15;100.00
44675;BME280;30388;52.038;-1.478;2022-11-04T12:26:31;65632.52;;;8.70;100.00
44675;BME280;30388;52.038;-1.478;2022-11-04T12:29:15;65592.76;;;8.64;100.00
44675;BME280;30388;52.038;-1.478;2022-11-04T12:31:53;65644.60;;;9.07;100.00
44675;BME280;30388;52.038;-1.478;2022-11-04T12:34:36;65630.39;;;9.11;100.00
44675;BME280;30388;52.038;-1.478;2022-11-04T12:37:19;65543.26;;;8.28;100.00
44675;BME280;30388;52.038;-1.478;2022-11-04T12:40:05;65680.79;;;9.31;100.00
44675;BME280;30388;52.038;-1.478;2022-11-04T12:42:45;65668.54;;;9.37;100.00
44675;BME280;30388;52.038;-1.478;2022-11-04T12:45:26;65816.06;;;10.53;100.00
44675;BME280;30388;52.038;-1.478;2022-11-04T12:48:00;65820.26;;;10.57;100.00
44675;BME280;30388;52.038;-1.478;2022-11-04T12:50:39;65765.83;;;9.90;100.00
44675;BME280;30388;52.038;-1.478;2022-11-04T12:53:22;65646.96;;;9.32;100.00
44675;BME280;30388;52.038;-1.478;2022-11-04T12:56:00;65703.69;;;9.60;100.00
44675;BME280;30388;52.038;-1.478;2022-11-04T12:58:49;65567.57;;;8.32;100.00
44675;BME280;30388;52.038;-1.478;2022-11-04T13:01:24;65667.89;;;9.37;100.00
44675;BME280;30388;52.038;-1.478;2022-11-04T13:03:58;65684.21;;;9.57;100.00
44675;BME280;30388;52.038;-1.478;2022-11-04T13:06:33;65581.57;;;8.50;100.00
44675;BME280;30388;52.038;-1.478;2022-11-04T13:09:09;65675.83;;;9.25;100.00
44675;BME280;30388;52.038;-1.478;2022-11-04T13:11:43;65630.10;;;8.67;100.00